Terminal Aerodrome Forecast
Issued by NWS Newport/Morehead City, NC

Home | Current Version | Previous Version | Graphics & Text | Print | Product List | Glossary On
Versions: 1 2 3 4 5 6 7 8 9 10 11 12 13
000
FTUS42 KMHX 211700 RRA
TAFEWN
TAF
KEWN 211745Z 2118/2218 12006KT 4SM -RA SCT015 BKN025
     FM212200 12006KT P6SM VCSH SCT025 BKN050
     FM220000 10003KT P6SM SCT025 BKN080
     FM220600 VRB02KT 3SM BR SCT007 BKN150
     FM221200 08006KT P6SM SCT015 BKN035=

USA.gov is the U.S. government's official web portal to all federal, state and local government web resources and services.